createdAt,value
2022-10-07T00:01:34.638Z,12.94
2022-10-07T00:04:04.450Z,12.86
2022-10-07T00:06:32.399Z,12.63
2022-10-07T00:09:02.733Z,12.64
2022-10-07T00:11:30.714Z,12.48
2022-10-07T00:13:59.524Z,12.74
2022-10-07T00:16:29.025Z,12.79
2022-10-07T00:18:58.595Z,12.99
2022-10-07T00:21:29.316Z,12.76
2022-10-07T00:23:57.944Z,12.33
2022-10-07T00:26:26.929Z,12.14
2022-10-07T00:28:55.464Z,12.22
2022-10-07T00:31:24.273Z,12.39
2022-10-07T00:33:52.454Z,13.02
2022-10-07T00:36:23.536Z,12.74
2022-10-07T00:38:56.610Z,12.74
2022-10-07T00:41:28.210Z,12.64
2022-10-07T00:43:56.297Z,12.36
2022-10-07T00:46:29.939Z,12.36
2022-10-07T00:49:00.055Z,12.99
2022-10-07T00:51:28.336Z,13.17
2022-10-07T00:53:57.985Z,13.12
2022-10-07T00:56:27.034Z,13.13
2022-10-07T00:58:55.089Z,12.59
2022-10-07T01:01:23.199Z,12.27
2022-10-07T01:03:53.654Z,12.67
2022-10-07T01:06:22.161Z,12.51
2022-10-07T01:08:52.775Z,12.98
2022-10-07T01:11:29.376Z,12.77
2022-10-07T01:14:04.222Z,12.49
2022-10-07T01:16:36.189Z,12.50
2022-10-07T01:19:14.427Z,13.14
2022-10-07T01:21:48.026Z,13.48
2022-10-07T01:24:23.497Z,13.03
2022-10-07T01:26:57.976Z,13.11
2022-10-07T01:29:29.366Z,13.06
2022-10-07T01:31:59.963Z,12.97
2022-10-07T01:34:30.156Z,13.08
2022-10-07T01:36:59.928Z,13.07
2022-10-07T01:39:33.708Z,12.71
2022-10-07T01:42:03.393Z,12.77
2022-10-07T01:44:31.656Z,12.78
2022-10-07T01:46:59.880Z,12.76
2022-10-07T01:49:30.256Z,12.98
2022-10-07T01:52:07.168Z,12.65
2022-10-07T01:54:42.237Z,12.63
2022-10-07T01:57:21.526Z,12.46
2022-10-07T02:00:06.454Z,12.56
2022-10-07T02:03:03.199Z,12.34
2022-10-07T02:05:37.545Z,12.70
2022-10-07T02:08:16.309Z,12.55
2022-10-07T02:10:50.120Z,12.65
2022-10-07T02:13:26.681Z,12.69
2022-10-07T02:15:59.069Z,12.48
2022-10-07T02:18:29.271Z,12.54
2022-10-07T02:20:57.735Z,12.85
2022-10-07T02:23:27.613Z,12.66
2022-10-07T02:25:57.353Z,12.79
2022-10-07T02:28:27.980Z,12.47
2022-10-07T02:30:58.447Z,12.68
2022-10-07T02:33:30.025Z,12.69
2022-10-07T02:36:00.763Z,12.35
2022-10-07T02:38:29.629Z,12.34
2022-10-07T02:41:03.239Z,12.51
2022-10-07T02:43:37.236Z,12.72
2022-10-07T02:46:08.129Z,12.87
2022-10-07T02:48:42.057Z,12.57
2022-10-07T02:51:15.292Z,12.35
2022-10-07T02:53:49.126Z,12.71
2022-10-07T02:56:17.939Z,12.78
2022-10-07T02:58:47.807Z,12.44
2022-10-07T03:01:19.219Z,12.59
2022-10-07T03:03:51.047Z,12.70
2022-10-07T03:06:19.656Z,12.83
2022-10-07T03:08:48.050Z,12.37
2022-10-07T03:11:18.382Z,12.05
2022-10-07T03:13:49.428Z,12.22
2022-10-07T03:16:17.611Z,12.38
2022-10-07T03:18:46.195Z,12.33
2022-10-07T03:21:20.544Z,12.62
2022-10-07T03:23:52.086Z,12.67
2022-10-07T03:26:20.891Z,12.32
2022-10-07T03:28:51.086Z,12.04
2022-10-07T03:31:20.851Z,12.21
2022-10-07T03:33:51.967Z,12.13
2022-10-07T03:36:21.243Z,11.75
2022-10-07T03:38:49.780Z,11.84
2022-10-07T03:41:18.976Z,11.92
2022-10-07T03:43:52.559Z,11.93
2022-10-07T03:46:23.633Z,11.89
2022-10-07T03:48:52.305Z,11.78
2022-10-07T03:51:20.510Z,11.46
2022-10-07T03:53:48.999Z,11.54
2022-10-07T03:56:18.099Z,11.67
2022-10-07T03:58:46.151Z,11.53
2022-10-07T04:01:16.272Z,11.65
2022-10-07T04:03:49.068Z,12.01
2022-10-07T04:06:17.091Z,12.24
2022-10-07T04:08:47.702Z,12.02
2022-10-07T04:11:15.927Z,11.99
2022-10-07T04:13:45.223Z,11.91
2022-10-07T04:16:14.044Z,11.66
2022-10-07T04:18:44.526Z,11.82
2022-10-07T04:21:12.857Z,11.79
2022-10-07T04:23:41.604Z,11.86
2022-10-07T04:26:10.578Z,12.17
2022-10-07T04:28:41.351Z,12.29
2022-10-07T04:31:12.850Z,12.55
2022-10-07T04:33:46.221Z,12.27
2022-10-07T04:36:18.058Z,11.97
2022-10-07T04:38:54.069Z,12.01
2022-10-07T04:41:26.939Z,12.05
2022-10-07T04:43:57.885Z,12.53
2022-10-07T04:46:28.877Z,12.76
2022-10-07T04:49:10.021Z,12.11
2022-10-07T04:51:38.061Z,12.12
2022-10-07T04:54:06.755Z,12.15
2022-10-07T04:56:49.453Z,12.07
2022-10-07T04:59:23.963Z,12.05
2022-10-07T05:01:54.518Z,11.99
2022-10-07T05:04:24.922Z,12.05
2022-10-07T05:06:54.230Z,12.07
2022-10-07T05:09:22.594Z,12.04
2022-10-07T05:11:53.671Z,12.03
2022-10-07T05:14:21.814Z,11.82
2022-10-07T05:16:51.840Z,11.99
2022-10-07T05:19:22.637Z,12.14
2022-10-07T05:21:52.402Z,12.80
2022-10-07T05:24:20.522Z,12.79
2022-10-07T05:26:49.347Z,12.55
2022-10-07T05:29:17.652Z,12.61
2022-10-07T05:31:49.890Z,12.62
2022-10-07T05:34:20.868Z,12.93
2022-10-07T05:36:49.075Z,12.74
2022-10-07T05:39:19.021Z,12.66
2022-10-07T05:41:50.851Z,12.35
2022-10-07T05:44:23.095Z,12.05
2022-10-07T05:46:53.002Z,12.18
2022-10-07T05:49:21.360Z,12.03
2022-10-07T05:51:49.446Z,11.93
2022-10-07T05:54:20.284Z,11.62
2022-10-07T05:56:48.362Z,12.15
2022-10-07T05:59:17.895Z,11.89
2022-10-07T06:01:47.195Z,12.12
2022-10-07T06:04:19.939Z,12.60
2022-10-07T06:06:49.716Z,12.52
2022-10-07T06:09:37.423Z,12.12
2022-10-07T06:12:28.935Z,12.08
2022-10-07T06:14:59.304Z,12.03
2022-10-07T06:17:29.383Z,12.51
2022-10-07T06:20:00.601Z,12.59
2022-10-07T06:22:29.218Z,12.66
2022-10-07T06:25:02.042Z,13.00
2022-10-07T06:27:31.621Z,12.46
2022-10-07T06:30:00.227Z,13.11
2022-10-07T06:32:29.959Z,13.25
2022-10-07T06:34:58.299Z,13.24
2022-10-07T06:37:26.602Z,13.51
2022-10-07T06:39:59.317Z,12.75
2022-10-07T06:42:30.089Z,12.23
2022-10-07T06:45:18.064Z,12.41
2022-10-07T06:47:46.671Z,12.55
2022-10-07T06:50:17.239Z,12.15
2022-10-07T06:52:45.324Z,12.59
2022-10-07T06:55:13.992Z,12.74
2022-10-07T06:57:46.629Z,12.56
2022-10-07T07:00:18.189Z,12.84
2022-10-07T07:02:46.982Z,12.67
2022-10-07T07:05:16.249Z,13.00
2022-10-07T07:07:46.577Z,12.60
2022-10-07T07:10:15.021Z,13.28
2022-10-07T07:12:48.619Z,12.94
2022-10-07T07:15:17.896Z,13.58
2022-10-07T07:17:46.233Z,13.43
2022-10-07T07:20:14.820Z,13.14
2022-10-07T07:22:43.396Z,13.37
2022-10-07T07:25:13.901Z,14.08
2022-10-07T07:27:42.057Z,13.59
2022-10-07T07:30:13.756Z,13.46
2022-10-07T07:32:43.380Z,13.53
2022-10-07T07:35:11.753Z,13.66
2022-10-07T07:37:42.659Z,13.92
2022-10-07T07:40:11.216Z,14.23
2022-10-07T07:42:39.590Z,14.06
2022-10-07T07:45:08.776Z,14.15
2022-10-07T07:47:40.674Z,13.83
2022-10-07T07:50:09.513Z,14.35
2022-10-07T07:52:37.574Z,14.18
2022-10-07T07:55:07.671Z,14.10
2022-10-07T07:57:36.930Z,14.40
2022-10-07T08:00:08.644Z,14.82
2022-10-07T08:02:47.559Z,14.82
2022-10-07T08:05:23.661Z,14.76
2022-10-07T08:07:54.194Z,14.56
2022-10-07T08:10:26.383Z,15.24
2022-10-07T08:12:55.929Z,15.25
2022-10-07T08:15:24.936Z,15.02
2022-10-07T08:17:55.106Z,15.31
2022-10-07T08:20:25.463Z,15.41
2022-10-07T08:22:58.843Z,15.34
2022-10-07T08:25:28.149Z,15.24
2022-10-07T08:27:56.608Z,15.57
2022-10-07T08:30:24.966Z,15.45
2022-10-07T08:32:59.053Z,15.71
2022-10-07T08:35:29.109Z,15.72
2022-10-07T08:37:57.091Z,15.71
2022-10-07T08:40:25.120Z,15.87
2022-10-07T08:42:54.557Z,15.73
2022-10-07T08:45:29.319Z,16.01
2022-10-07T08:48:03.837Z,15.94
2022-10-07T08:50:35.553Z,15.92
2022-10-07T08:53:04.757Z,16.62
2022-10-07T08:55:36.498Z,16.38
2022-10-07T08:58:11.659Z,16.79
2022-10-07T09:00:43.299Z,16.97
2022-10-07T09:03:20.329Z,16.84
2022-10-07T09:05:52.758Z,17.37
2022-10-07T09:08:28.507Z,16.49
2022-10-07T09:11:00.332Z,16.93
2022-10-07T09:13:32.411Z,17.47
2022-10-07T09:16:06.949Z,17.07
2022-10-07T09:18:40.567Z,18.05
2022-10-07T09:21:12.770Z,17.51
2022-10-07T09:23:40.794Z,17.40
2022-10-07T09:26:11.280Z,17.58
2022-10-07T09:28:42.289Z,17.62
2022-10-07T09:31:14.025Z,18.00
2022-10-07T09:33:45.285Z,17.61
2022-10-07T09:36:17.051Z,17.48
2022-10-07T09:38:46.624Z,18.20
2022-10-07T09:41:20.365Z,17.97
2022-10-07T09:43:56.317Z,17.99
2022-10-07T09:46:42.463Z,18.82
2022-10-07T09:49:27.707Z,17.65
2022-10-07T09:51:59.559Z,18.14
2022-10-07T09:54:28.265Z,17.91
2022-10-07T09:56:57.848Z,18.16
2022-10-07T09:59:29.307Z,18.82
2022-10-07T10:01:58.620Z,18.46
2022-10-07T10:04:32.327Z,19.03
2022-10-07T10:07:03.484Z,18.70
2022-10-07T10:09:31.640Z,19.34
2022-10-07T10:12:02.440Z,19.00
2022-10-07T10:14:36.691Z,18.63
2022-10-07T10:17:05.394Z,19.64
2022-10-07T10:19:37.299Z,19.48
2022-10-07T10:22:05.628Z,19.92
2022-10-07T10:24:52.911Z,19.07
2022-10-07T10:27:23.730Z,19.69
2022-10-07T10:29:56.433Z,19.25
2022-10-07T10:32:32.587Z,19.71
2022-10-07T10:35:03.856Z,19.11
2022-10-07T10:37:42.223Z,18.49
2022-10-07T10:40:19.079Z,19.20
2022-10-07T10:42:53.628Z,19.69
2022-10-07T10:45:31.120Z,19.40
2022-10-07T10:48:14.717Z,19.79
2022-10-07T10:50:53.129Z,19.53
2022-10-07T10:53:27.403Z,19.83
2022-10-07T10:56:07.055Z,20.02
2022-10-07T10:58:44.382Z,19.99
2022-10-07T11:01:23.901Z,19.61
2022-10-07T11:04:05.499Z,19.50
2022-10-07T11:06:40.207Z,19.92
2022-10-07T11:09:15.624Z,19.40
2022-10-07T11:11:45.173Z,19.95
2022-10-07T11:14:16.133Z,20.32
2022-10-07T11:16:47.116Z,20.37
2022-10-07T11:19:17.776Z,19.21
2022-10-07T11:21:48.229Z,19.65
2022-10-07T11:24:18.825Z,19.40
2022-10-07T11:26:51.331Z,19.45
2022-10-07T11:29:22.164Z,19.16
2022-10-07T11:31:55.506Z,19.23
2022-10-07T11:34:26.055Z,19.47
2022-10-07T11:36:59.855Z,19.61
2022-10-07T11:39:27.970Z,19.80
2022-10-07T11:41:59.224Z,19.31
2022-10-07T11:44:32.037Z,19.59
2022-10-07T11:47:03.926Z,19.56
2022-10-07T11:49:35.871Z,19.28
2022-10-07T11:52:07.050Z,19.40
2022-10-07T11:54:40.294Z,19.98
2022-10-07T11:57:20.853Z,20.15
2022-10-07T11:59:52.131Z,20.23
2022-10-07T12:02:43.585Z,19.83
2022-10-07T12:05:30.713Z,19.84
2022-10-07T12:08:01.453Z,20.25
2022-10-07T12:10:31.009Z,19.60
2022-10-07T12:13:01.476Z,20.68
2022-10-07T12:15:33.899Z,21.19
2022-10-07T12:18:23.293Z,21.36
2022-10-07T12:20:58.584Z,20.74
2022-10-07T12:23:41.127Z,19.62
2022-10-07T12:26:42.026Z,19.85
2022-10-07T12:29:19.739Z,19.43
2022-10-07T12:31:48.561Z,20.25
2022-10-07T12:34:22.998Z,20.72
2022-10-07T12:36:51.040Z,21.00
2022-10-07T12:39:35.010Z,20.70
2022-10-07T12:42:05.942Z,20.53
2022-10-07T12:44:37.003Z,19.90
2022-10-07T12:47:13.876Z,20.06
2022-10-07T12:49:48.797Z,21.03
2022-10-07T12:52:22.092Z,20.66
2022-10-07T12:54:53.674Z,21.78
2022-10-07T12:57:23.297Z,22.37
2022-10-07T12:59:56.701Z,21.63
2022-10-07T13:02:43.390Z,20.70
2022-10-07T13:05:45.634Z,21.83
2022-10-07T13:08:41.784Z,20.98
2022-10-07T13:11:30.784Z,21.07
2022-10-07T13:14:03.374Z,21.51
2022-10-07T13:16:34.796Z,21.41
2022-10-07T13:19:05.406Z,20.61
2022-10-07T13:21:37.325Z,20.32
2022-10-07T13:24:06.071Z,20.28
2022-10-07T13:26:35.717Z,20.37
2022-10-07T13:29:03.996Z,20.20
2022-10-07T13:31:33.296Z,20.83
2022-10-07T13:34:15.050Z,20.21
2022-10-07T13:36:43.648Z,20.60
2022-10-07T13:39:12.565Z,21.53
2022-10-07T13:41:43.577Z,21.79
2022-10-07T13:44:14.725Z,20.65
2022-10-07T13:46:50.396Z,21.76
2022-10-07T13:49:21.774Z,21.60
2022-10-07T13:51:55.483Z,20.97
2022-10-07T13:54:26.094Z,21.02
2022-10-07T13:56:55.535Z,20.20
2022-10-07T13:59:25.679Z,21.56
2022-10-07T14:01:54.968Z,21.67
2022-10-07T14:04:25.258Z,21.66
2022-10-07T14:06:56.029Z,22.27
2022-10-07T14:09:26.420Z,21.77
2022-10-07T14:11:57.555Z,20.18
2022-10-07T14:14:27.881Z,21.42
2022-10-07T14:17:00.120Z,21.15
2022-10-07T14:19:32.653Z,21.12
2022-10-07T14:22:02.641Z,21.42
2022-10-07T14:24:31.199Z,21.36
2022-10-07T14:27:00.579Z,21.69
2022-10-07T14:29:37.567Z,21.39
2022-10-07T14:32:28.406Z,21.03
2022-10-07T14:35:14.365Z,20.60
2022-10-07T14:37:42.730Z,20.50
2022-10-07T14:40:22.486Z,20.19
2022-10-07T14:42:53.603Z,20.30
2022-10-07T14:45:22.365Z,20.36
2022-10-07T14:47:50.651Z,20.25
2022-10-07T14:50:20.304Z,20.24
2022-10-07T14:52:51.845Z,20.32
2022-10-07T14:55:21.963Z,20.56
2022-10-07T14:57:50.226Z,20.82
2022-10-07T15:00:20.651Z,20.37
2022-10-07T15:02:51.333Z,20.12
2022-10-07T15:05:19.774Z,20.75
2022-10-07T15:07:47.827Z,20.39
2022-10-07T15:10:17.208Z,20.79
2022-10-07T15:12:45.551Z,20.53
2022-10-07T15:15:14.157Z,19.72
2022-10-07T15:17:44.267Z,19.97
2022-10-07T15:20:13.882Z,19.79
2022-10-07T15:22:42.268Z,19.50
2022-10-07T15:25:12.793Z,19.76
2022-10-07T15:27:41.186Z,19.74
2022-10-07T15:30:09.705Z,19.62
2022-10-07T15:32:37.758Z,19.43
2022-10-07T15:35:07.917Z,19.43
2022-10-07T15:37:38.015Z,19.87
2022-10-07T15:40:09.088Z,19.49
2022-10-07T15:42:37.195Z,19.00
2022-10-07T15:45:05.491Z,19.30
2022-10-07T15:47:34.387Z,19.05
2022-10-07T15:50:05.012Z,19.26
2022-10-07T15:52:34.349Z,19.33
2022-10-07T15:55:07.601Z,18.80
2022-10-07T15:57:36.337Z,18.87
2022-10-07T16:00:04.851Z,19.17
2022-10-07T16:02:39.951Z,18.58
2022-10-07T16:05:09.454Z,18.91
2022-10-07T16:07:38.924Z,18.64
2022-10-07T16:10:12.135Z,18.85
2022-10-07T16:12:41.079Z,18.22
2022-10-07T16:15:09.328Z,18.86
2022-10-07T16:17:37.323Z,18.67
2022-10-07T16:20:11.367Z,18.21
2022-10-07T16:22:40.983Z,18.84
2022-10-07T16:25:09.233Z,19.03
2022-10-07T16:27:51.159Z,19.27
2022-10-07T16:30:36.844Z,18.59
2022-10-07T16:33:07.193Z,18.42
2022-10-07T16:35:35.174Z,18.37
2022-10-07T16:38:04.859Z,18.50
2022-10-07T16:40:32.881Z,18.59
2022-10-07T16:43:00.870Z,18.07
2022-10-07T16:45:28.899Z,17.67
2022-10-07T16:47:57.355Z,17.65
2022-10-07T16:50:25.408Z,17.60
2022-10-07T16:52:53.409Z,17.76
2022-10-07T16:55:22.823Z,17.57
2022-10-07T16:57:53.542Z,17.14
2022-10-07T17:00:22.050Z,17.35
2022-10-07T17:02:50.058Z,17.33
2022-10-07T17:05:18.790Z,17.41
2022-10-07T17:07:47.931Z,17.47
2022-10-07T17:10:16.317Z,17.16
2022-10-07T17:12:45.892Z,16.84
2022-10-07T17:15:15.114Z,17.05
2022-10-07T17:17:43.494Z,17.06
2022-10-07T17:20:11.972Z,17.21
2022-10-07T17:22:40.120Z,16.91
2022-10-07T17:25:08.732Z,17.04
2022-10-07T17:27:37.181Z,17.13
2022-10-07T17:30:07.441Z,16.41
2022-10-07T17:32:35.416Z,16.40
2022-10-07T17:35:03.381Z,17.04
2022-10-07T17:37:31.320Z,16.99
2022-10-07T17:39:59.314Z,16.60
2022-10-07T17:42:27.264Z,16.44
2022-10-07T17:44:55.255Z,16.27
2022-10-07T17:47:24.712Z,16.24
2022-10-07T17:49:54.130Z,16.30
2022-10-07T17:52:27.194Z,16.17
2022-10-07T17:54:56.515Z,16.07
2022-10-07T17:57:24.874Z,15.86
2022-10-07T17:59:53.306Z,15.44
2022-10-07T18:02:21.365Z,15.66
2022-10-07T18:04:51.679Z,16.02
2022-10-07T18:07:19.750Z,15.99
2022-10-07T18:09:47.725Z,15.67
2022-10-07T18:12:33.031Z,15.44
2022-10-07T18:15:18.428Z,15.88
2022-10-07T18:17:47.873Z,15.28
2022-10-07T18:20:21.339Z,15.35
2022-10-07T18:22:53.934Z,15.71
2022-10-07T18:25:24.465Z,15.54
2022-10-07T18:27:53.347Z,15.16
2022-10-07T18:30:21.331Z,15.43
2022-10-07T18:32:49.349Z,15.61
2022-10-07T18:35:18.755Z,15.11
2022-10-07T18:37:47.106Z,15.11
2022-10-07T18:40:15.420Z,15.32
2022-10-07T18:42:43.582Z,15.18
2022-10-07T18:45:11.795Z,15.43
2022-10-07T18:47:39.801Z,15.48
2022-10-07T18:50:08.109Z,15.47
2022-10-07T18:52:37.469Z,15.30
2022-10-07T18:55:06.070Z,15.62
2022-10-07T18:57:34.071Z,14.95
2022-10-07T19:00:02.073Z,14.90
2022-10-07T19:02:30.131Z,14.72
2022-10-07T19:04:58.268Z,14.79
2022-10-07T19:07:26.647Z,14.75
2022-10-07T19:09:56.184Z,14.94
2022-10-07T19:12:41.878Z,14.71
2022-10-07T19:15:10.295Z,14.83
2022-10-07T19:17:38.477Z,14.73
2022-10-07T19:20:06.878Z,14.69
2022-10-07T19:22:37.229Z,14.84
2022-10-07T19:25:24.534Z,14.99
2022-10-07T19:27:52.532Z,14.89
2022-10-07T19:30:20.547Z,14.82
2022-10-07T19:32:48.660Z,14.79
2022-10-07T19:35:16.729Z,14.74
2022-10-07T19:37:44.895Z,14.89
2022-10-07T19:40:14.466Z,14.34
2022-10-07T19:42:42.492Z,14.52
2022-10-07T19:45:11.247Z,14.87
2022-10-07T19:47:41.547Z,14.61
2022-10-07T19:50:09.650Z,14.51
2022-10-07T19:52:37.590Z,14.58
2022-10-07T19:55:05.937Z,14.68
2022-10-07T19:57:35.514Z,14.68
2022-10-07T20:00:03.581Z,14.21
2022-10-07T20:02:40.328Z,14.56
2022-10-07T20:05:09.606Z,14.48
2022-10-07T20:07:37.658Z,14.52
2022-10-07T20:10:06.266Z,14.42
2022-10-07T20:12:35.716Z,14.42
2022-10-07T20:15:03.720Z,14.50
2022-10-07T20:17:31.860Z,13.94
2022-10-07T20:19:59.826Z,14.14
2022-10-07T20:22:27.890Z,13.79
2022-10-07T20:24:56.566Z,14.04
2022-10-07T20:27:24.603Z,14.17
2022-10-07T20:30:02.196Z,14.24
2022-10-07T20:32:34.213Z,14.27
2022-10-07T20:35:04.055Z,14.22
2022-10-07T20:37:32.153Z,14.18
2022-10-07T20:40:19.902Z,14.44
2022-10-07T20:42:48.292Z,14.27
2022-10-07T20:45:17.966Z,14.38
2022-10-07T20:47:47.181Z,14.35
2022-10-07T20:50:15.188Z,14.64
2022-10-07T20:52:45.153Z,14.51
2022-10-07T20:55:14.253Z,14.19
2022-10-07T20:57:42.331Z,13.77
2022-10-07T21:00:16.102Z,13.92
2022-10-07T21:02:46.412Z,14.24
2022-10-07T21:05:14.759Z,14.10
2022-10-07T21:07:43.145Z,13.86
2022-10-07T21:10:11.142Z,13.77
2022-10-07T21:12:40.311Z,14.15
2022-10-07T21:15:08.612Z,14.23
2022-10-07T21:17:36.579Z,14.07
2022-10-07T21:20:07.078Z,14.11
2022-10-07T21:22:35.065Z,14.31
2022-10-07T21:25:03.115Z,14.02
2022-10-07T21:27:31.164Z,13.83
2022-10-07T21:29:59.776Z,14.16
2022-10-07T21:32:28.047Z,14.18
2022-10-07T21:34:58.362Z,13.74
2022-10-07T21:37:29.574Z,13.93
2022-10-07T21:39:57.897Z,14.12
2022-10-07T21:42:25.901Z,13.83
2022-10-07T21:44:56.661Z,13.67
2022-10-07T21:47:24.643Z,13.57
2022-10-07T21:49:52.643Z,13.78
2022-10-07T21:52:20.607Z,13.41
2022-10-07T21:54:50.110Z,13.72
2022-10-07T21:57:18.680Z,13.43
2022-10-07T22:02:39.908Z,13.29
2022-10-07T22:05:08.962Z,13.16
2022-10-07T22:08:03.647Z,13.31
2022-10-07T22:10:31.894Z,13.30
2022-10-07T22:13:02.181Z,13.55
2022-10-07T22:15:36.825Z,13.65
2022-10-07T22:18:06.624Z,13.52
2022-10-07T22:20:38.226Z,12.91
2022-10-07T22:23:06.220Z,13.24
2022-10-07T22:25:34.280Z,13.36
2022-10-07T22:28:02.681Z,13.19
2022-10-07T22:30:30.692Z,13.50
2022-10-07T22:32:58.687Z,13.47
2022-10-07T22:35:33.562Z,13.60
2022-10-07T22:38:01.676Z,13.46
2022-10-07T22:40:29.670Z,13.59
2022-10-07T22:42:57.729Z,13.09
2022-10-07T22:45:27.835Z,13.21
2022-10-07T22:47:57.960Z,13.53
2022-10-07T22:50:26.003Z,13.40
2022-10-07T22:52:56.672Z,13.30
2022-10-07T22:55:24.963Z,13.49
2022-10-07T22:57:53.105Z,13.47
2022-10-07T23:00:22.087Z,13.28
2022-10-07T23:02:50.326Z,13.23
2022-10-07T23:05:18.727Z,13.13
2022-10-07T23:07:49.035Z,12.93
2022-10-07T23:10:18.449Z,13.16
2022-10-07T23:12:46.548Z,12.94
2022-10-07T23:15:16.371Z,13.29
2022-10-07T23:17:44.864Z,13.56
2022-10-07T23:20:12.832Z,13.23
2022-10-07T23:22:41.480Z,12.99
2022-10-07T23:25:09.610Z,13.23
2022-10-07T23:27:40.704Z,13.32
2022-10-07T23:30:10.018Z,13.36
2022-10-07T23:32:38.090Z,13.08
2022-10-07T23:35:06.476Z,12.83
2022-10-07T23:37:36.798Z,12.78
2022-10-07T23:40:07.810Z,12.89
2022-10-07T23:42:36.771Z,12.80
2022-10-07T23:45:06.778Z,12.70
2022-10-07T23:47:34.737Z,12.71
2022-10-07T23:50:03.072Z,12.73
2022-10-07T23:52:31.426Z,13.09
2022-10-07T23:54:59.435Z,13.21
2022-10-07T23:57:27.400Z,13.41
2022-10-07T23:59:55.325Z,13.03
